sensor_id;sensor_type;location;lat;lon;timestamp;pressure;altitude;pressure_sealevel;temperature;humidity
65800;BME280;52544;48.116;11.660;2023-02-10T00:02:21;97309.31;;;-3.34;93.10
65800;BME280;52544;48.116;11.660;2023-02-10T00:04:47;97302.41;;;-3.32;93.47
65800;BME280;52544;48.116;11.660;2023-02-10T00:07:12;97305.03;;;-3.41;93.60
65800;BME280;52544;48.116;11.660;2023-02-10T00:09:38;97311.13;;;-3.60;93.41
65800;BME280;52544;48.116;11.660;2023-02-10T00:12:03;97309.44;;;-3.73;94.20
65800;BME280;52544;48.116;11.660;2023-02-10T00:14:29;97316.31;;;-3.66;95.40
65800;BME280;52544;48.116;11.660;2023-02-10T00:16:55;97322.34;;;-3.57;95.46
65800;BME280;52544;48.116;11.660;2023-02-10T00:19:23;97320.59;;;-3.52;94.56
65800;BME280;52544;48.116;11.660;2023-02-10T00:21:49;97329.22;;;-3.49;93.43
65800;BME280;52544;48.116;11.660;2023-02-10T00:24:15;97328.34;;;-3.45;93.08
65800;BME280;52544;48.116;11.660;2023-02-10T00:26:41;97334.38;;;-3.45;92.64
65800;BME280;52544;48.116;11.660;2023-02-10T00:29:06;97333.50;;;-3.39;92.58
65800;BME280;52544;48.116;11.660;2023-02-10T00:31:32;97335.25;;;-3.46;91.98
65800;BME280;52544;48.116;11.660;2023-02-10T00:33:57;97336.13;;;-3.44;91.54
65800;BME280;52544;48.116;11.660;2023-02-10T00:36:23;97334.44;;;-3.60;91.50
65800;BME280;52544;48.116;11.660;2023-02-10T00:38:50;97348.22;;;-3.63;92.39
65800;BME280;52544;48.116;11.660;2023-02-10T00:41:17;97345.63;;;-3.55;92.48
65800;BME280;52544;48.116;11.660;2023-02-10T00:43:43;97349.09;;;-3.56;92.85
65800;BME280;52544;48.116;11.660;2023-02-10T00:46:11;97358.59;;;-3.57;92.71
65800;BME280;52544;48.116;11.660;2023-02-10T00:48:37;97357.72;;;-3.72;92.43
65800;BME280;52544;48.116;11.660;2023-02-10T00:51:03;97360.31;;;-3.66;92.70
65800;BME280;52544;48.116;11.660;2023-02-10T00:53:29;97360.31;;;-3.68;92.96
65800;BME280;52544;48.116;11.660;2023-02-10T00:55:55;97363.75;;;-3.80;93.46
65800;BME280;52544;48.116;11.660;2023-02-10T00:58:20;97368.91;;;-3.66;94.55
65800;BME280;52544;48.116;11.660;2023-02-10T01:00:46;97362.91;;;-3.72;94.34
65800;BME280;52544;48.116;11.660;2023-02-10T01:03:12;97364.63;;;-3.68;95.39
65800;BME280;52544;48.116;11.660;2023-02-10T01:05:37;97366.31;;;-3.58;95.83
65800;BME280;52544;48.116;11.660;2023-02-10T01:08:03;97358.53;;;-3.49;96.02
65800;BME280;52544;48.116;11.660;2023-02-10T01:10:28;97369.75;;;-3.39;95.95
65800;BME280;52544;48.116;11.660;2023-02-10T01:12:54;97363.69;;;-3.29;95.47
65800;BME280;52544;48.116;11.660;2023-02-10T01:15:19;97363.69;;;-3.31;95.77
65800;BME280;52544;48.116;11.660;2023-02-10T01:17:44;97371.44;;;-3.28;95.66
65800;BME280;52544;48.116;11.660;2023-02-10T01:20:10;97377.47;;;-3.18;95.07
65800;BME280;52544;48.116;11.660;2023-02-10T01:22:36;97377.50;;;-3.25;94.84
65800;BME280;52544;48.116;11.660;2023-02-10T01:25:02;97369.72;;;-3.36;95.04
65800;BME280;52544;48.116;11.660;2023-02-10T01:27:28;97374.06;;;-3.37;95.17
65800;BME280;52544;48.116;11.660;2023-02-10T01:29:53;97372.31;;;-3.30;95.29
65800;BME280;52544;48.116;11.660;2023-02-10T01:32:18;97379.22;;;-3.31;95.02
65800;BME280;52544;48.116;11.660;2023-02-10T01:34:44;97374.06;;;-3.38;95.65
65800;BME280;52544;48.116;11.660;2023-02-10T01:37:09;97379.25;;;-3.38;95.86
65800;BME280;52544;48.116;11.660;2023-02-10T01:39:35;97379.25;;;-3.41;95.43
65800;BME280;52544;48.116;11.660;2023-02-10T01:42:01;97376.66;;;-3.40;95.25
65800;BME280;52544;48.116;11.660;2023-02-10T01:46:53;97381.78;;;-3.24;94.56
65800;BME280;52544;48.116;11.660;2023-02-10T01:49:23;97380.06;;;-3.25;94.20
65800;BME280;52544;48.116;11.660;2023-02-10T01:51:55;97382.69;;;-3.41;93.99
65800;BME280;52544;48.116;11.660;2023-02-10T01:54:32;97386.16;;;-3.45;93.84
65800;BME280;52544;48.116;11.660;2023-02-10T01:56:59;97384.41;;;-3.31;93.96
65800;BME280;52544;48.116;11.660;2023-02-10T01:59:32;97390.44;;;-3.36;94.14
65800;BME280;52544;48.116;11.660;2023-02-10T02:02:00;97388.75;;;-3.42;94.25
65800;BME280;52544;48.116;11.660;2023-02-10T02:04:34;97390.47;;;-3.53;94.51
65800;BME280;52544;48.116;11.660;2023-02-10T02:07:02;97399.97;;;-3.52;94.67
65800;BME280;52544;48.116;11.660;2023-02-10T02:09:28;97397.38;;;-3.61;94.70
65800;BME280;52544;48.116;11.660;2023-02-10T02:12:09;97402.56;;;-3.52;95.62
65800;BME280;52544;48.116;11.660;2023-02-10T02:14:44;97397.41;;;-3.55;94.26
65800;BME280;52544;48.116;11.660;2023-02-10T02:20:42;97402.59;;;-3.64;94.95
65800;BME280;52544;48.116;11.660;2023-02-10T02:34:00;97418.13;;;-3.64;94.40
65800;BME280;52544;48.116;11.660;2023-02-10T02:36:35;97414.66;;;-3.85;95.10
65800;BME280;52544;48.116;11.660;2023-02-10T02:39:04;97412.94;;;-3.86;95.74
65800;BME280;52544;48.116;11.660;2023-02-10T02:41:31;97419.81;;;-3.91;95.93
65800;BME280;52544;48.116;11.660;2023-02-10T02:43:57;97421.56;;;-3.99;96.29
65800;BME280;52544;48.116;11.660;2023-02-10T02:49:04;97425.00;;;-3.94;96.96
65800;BME280;52544;48.116;11.660;2023-02-10T02:52:07;97426.72;;;-4.02;96.54
65800;BME280;52544;48.116;11.660;2023-02-10T02:54:46;97424.13;;;-4.05;96.97
65800;BME280;52544;48.116;11.660;2023-02-10T02:57:34;97421.53;;;-4.00;96.81
65800;BME280;52544;48.116;11.660;2023-02-10T03:00:05;97430.16;;;-4.00;96.94
65800;BME280;52544;48.116;11.660;2023-02-10T03:02:35;97428.47;;;-3.95;97.58
65800;BME280;52544;48.116;11.660;2023-02-10T03:05:03;97428.44;;;-4.12;97.55
65800;BME280;52544;48.116;11.660;2023-02-10T03:07:29;97424.97;;;-4.17;98.62
65800;BME280;52544;48.116;11.660;2023-02-10T03:09:54;97419.81;;;-4.03;98.92
65800;BME280;52544;48.116;11.660;2023-02-10T03:12:19;97419.81;;;-4.00;99.03
65800;BME280;52544;48.116;11.660;2023-02-10T03:14:45;97421.53;;;-3.96;98.33
65800;BME280;52544;48.116;11.660;2023-02-10T03:17:10;97423.28;;;-3.98;97.38
65800;BME280;52544;48.116;11.660;2023-02-10T03:19:36;97426.72;;;-4.05;98.04
65800;BME280;52544;48.116;11.660;2023-02-10T03:22:01;97424.09;;;-4.04;98.14
65800;BME280;52544;48.116;11.660;2023-02-10T03:24:27;97417.22;;;-3.95;98.29
65800;BME280;52544;48.116;11.660;2023-02-10T03:26:52;97415.53;;;-3.95;97.43
65800;BME280;52544;48.116;11.660;2023-02-10T03:29:18;97418.09;;;-3.98;96.52
65800;BME280;52544;48.116;11.660;2023-02-10T03:31:43;97412.06;;;-4.03;96.69
65800;BME280;52544;48.116;11.660;2023-02-10T03:34:09;97418.06;;;-4.22;96.65
65800;BME280;52544;48.116;11.660;2023-02-10T03:36:35;97426.69;;;-4.23;97.20
65800;BME280;52544;48.116;11.660;2023-02-10T03:39:02;97423.28;;;-4.12;98.45
65800;BME280;52544;48.116;11.660;2023-02-10T03:41:27;97427.56;;;-4.09;97.93
65800;BME280;52544;48.116;11.660;2023-02-10T03:43:53;97431.88;;;-4.08;97.00
65800;BME280;52544;48.116;11.660;2023-02-10T03:46:18;97430.13;;;-4.17;96.81
65800;BME280;52544;48.116;11.660;2023-02-10T03:48:44;97439.63;;;-4.13;96.78
65800;BME280;52544;48.116;11.660;2023-02-10T03:51:09;97440.50;;;-4.15;96.60
65800;BME280;52544;48.116;11.660;2023-02-10T03:53:35;97441.34;;;-4.13;96.80
65800;BME280;52544;48.116;11.660;2023-02-10T03:56:01;97442.19;;;-4.33;96.37
65800;BME280;52544;48.116;11.660;2023-02-10T03:58:26;97442.13;;;-4.42;97.17
65800;BME280;52544;48.116;11.660;2023-02-10T04:00:52;97440.41;;;-4.43;97.70
65800;BME280;52544;48.116;11.660;2023-02-10T04:03:18;97437.00;;;-4.36;98.13
65800;BME280;52544;48.116;11.660;2023-02-10T04:05:44;97445.63;;;-4.31;97.37
65800;BME280;52544;48.116;11.660;2023-02-10T04:08:09;97441.34;;;-4.24;97.07
65800;BME280;52544;48.116;11.660;2023-02-10T04:10:35;97443.06;;;-4.20;96.46
65800;BME280;52544;48.116;11.660;2023-02-10T04:13:00;97446.50;;;-4.22;96.60
65800;BME280;52544;48.116;11.660;2023-02-10T04:15:25;97449.09;;;-4.22;97.49
65800;BME280;52544;48.116;11.660;2023-02-10T04:17:51;97447.41;;;-4.20;97.42
65800;BME280;52544;48.116;11.660;2023-02-10T04:20:17;97447.38;;;-4.17;96.61
65800;BME280;52544;48.116;11.660;2023-02-10T04:22:42;97443.09;;;-4.11;96.91
65800;BME280;52544;48.116;11.660;2023-02-10T04:25:08;97437.06;;;-4.05;97.03
65800;BME280;52544;48.116;11.660;2023-02-10T04:27:34;97436.19;;;-4.01;96.88
65800;BME280;52544;48.116;11.660;2023-02-10T04:29:59;97441.38;;;-3.92;96.83
65800;BME280;52544;48.116;11.660;2023-02-10T04:32:25;97441.41;;;-3.90;96.32
65800;BME280;52544;48.116;11.660;2023-02-10T04:34:50;97444.81;;;-3.91;96.33
65800;BME280;52544;48.116;11.660;2023-02-10T04:37:16;97447.44;;;-3.90;95.28
65800;BME280;52544;48.116;11.660;2023-02-10T04:39:42;97443.13;;;-3.89;95.44
65800;BME280;52544;48.116;11.660;2023-02-10T04:42:07;97448.28;;;-3.88;95.68
65800;BME280;52544;48.116;11.660;2023-02-10T04:44:33;97449.16;;;-3.81;95.37
65800;BME280;52544;48.116;11.660;2023-02-10T04:46:58;97456.06;;;-3.82;94.90
65800;BME280;52544;48.116;11.660;2023-02-10T04:49:24;97459.50;;;-3.89;94.68
65800;BME280;52544;48.116;11.660;2023-02-10T04:51:50;97460.34;;;-3.93;94.85
65800;BME280;52544;48.116;11.660;2023-02-10T04:54:15;97462.09;;;-3.93;94.92
65800;BME280;52544;48.116;11.660;2023-02-10T04:56:41;97460.34;;;-3.96;94.95
65800;BME280;52544;48.116;11.660;2023-02-10T04:59:07;97457.72;;;-4.08;94.86
65800;BME280;52544;48.116;11.660;2023-02-10T05:01:33;97457.75;;;-4.04;95.65
65800;BME280;52544;48.116;11.660;2023-02-10T05:03:59;97459.47;;;-4.01;95.40
65800;BME280;52544;48.116;11.660;2023-02-10T05:06:24;97458.63;;;-4.02;95.17
65800;BME280;52544;48.116;11.660;2023-02-10T05:08:49;97460.31;;;-4.04;95.17
65800;BME280;52544;48.116;11.660;2023-02-10T05:11:15;97468.06;;;-4.08;94.52
65800;BME280;52544;48.116;11.660;2023-02-10T05:13:42;97463.78;;;-4.11;94.46
65800;BME280;52544;48.116;11.660;2023-02-10T05:16:09;97465.50;;;-4.08;94.20
65800;BME280;52544;48.116;11.660;2023-02-10T05:18:34;97470.63;;;-4.22;92.83
65800;BME280;52544;48.116;11.660;2023-02-10T05:21:00;97473.22;;;-4.25;92.81
65800;BME280;52544;48.116;11.660;2023-02-10T05:23:27;97475.75;;;-4.42;92.57
65800;BME280;52544;48.116;11.660;2023-02-10T05:25:53;97482.56;;;-4.62;93.56
65800;BME280;52544;48.116;11.660;2023-02-10T05:28:19;97484.28;;;-4.66;94.20
65800;BME280;52544;48.116;11.660;2023-02-10T05:30:45;97492.09;;;-4.47;94.07
65800;BME280;52544;48.116;11.660;2023-02-10T05:33:11;97490.38;;;-4.53;94.09
65800;BME280;52544;48.116;11.660;2023-02-10T05:35:36;97496.38;;;-4.53;93.08
65800;BME280;52544;48.116;11.660;2023-02-10T05:38:02;97501.53;;;-4.56;92.26
65800;BME280;52544;48.116;11.660;2023-02-10T05:40:28;97504.97;;;-4.60;93.36
65800;BME280;52544;48.116;11.660;2023-02-10T05:42:54;97510.06;;;-4.80;93.52
65800;BME280;52544;48.116;11.660;2023-02-10T05:45:20;97509.16;;;-4.83;93.84
65800;BME280;52544;48.116;11.660;2023-02-10T05:47:45;97504.06;;;-4.75;94.19
65800;BME280;52544;48.116;11.660;2023-02-10T05:50:11;97501.47;;;-4.72;93.12
65800;BME280;52544;48.116;11.660;2023-02-10T05:52:36;97507.50;;;-4.70;92.81
65800;BME280;52544;48.116;11.660;2023-02-10T05:55:02;97517.72;;;-4.89;93.05
65800;BME280;52544;48.116;11.660;2023-02-10T05:57:27;97516.81;;;-5.00;93.15
65800;BME280;52544;48.116;11.660;2023-02-10T05:59:53;97517.72;;;-4.89;93.62
65800;BME280;52544;48.116;11.660;2023-02-10T06:02:18;97516.91;;;-4.88;93.16
65800;BME280;52544;48.116;11.660;2023-02-10T06:04:43;97527.22;;;-4.86;93.03
65800;BME280;52544;48.116;11.660;2023-02-10T06:07:09;97520.31;;;-4.92;93.73
65800;BME280;52544;48.116;11.660;2023-02-10T06:09:34;97529.75;;;-4.94;93.20
65800;BME280;52544;48.116;11.660;2023-02-10T06:12:00;97532.38;;;-4.89;93.20
65800;BME280;52544;48.116;11.660;2023-02-10T06:14:27;97534.94;;;-4.91;93.19
65800;BME280;52544;48.116;11.660;2023-02-10T06:16:52;97532.38;;;-4.85;92.86
65800;BME280;52544;48.116;11.660;2023-02-10T06:19:18;97530.63;;;-4.89;92.19
65800;BME280;52544;48.116;11.660;2023-02-10T06:21:43;97540.13;;;-4.85;92.56
65800;BME280;52544;48.116;11.660;2023-02-10T06:24:08;97538.44;;;-4.83;93.06
65800;BME280;52544;48.116;11.660;2023-02-10T06:26:35;97544.47;;;-4.84;92.45
65800;BME280;52544;48.116;11.660;2023-02-10T06:29:01;97547.03;;;-4.87;92.68
65800;BME280;52544;48.116;11.660;2023-02-10T06:31:27;97547.88;;;-4.86;93.03
65800;BME280;52544;48.116;11.660;2023-02-10T06:33:52;97542.69;;;-4.89;93.35
65800;BME280;52544;48.116;11.660;2023-02-10T06:36:18;97547.03;;;-4.87;93.67
65800;BME280;52544;48.116;11.660;2023-02-10T06:38:43;97542.72;;;-4.85;94.04
65800;BME280;52544;48.116;11.660;2023-02-10T06:41:08;97547.84;;;-4.89;94.05
65800;BME280;52544;48.116;11.660;2023-02-10T06:43:34;97543.53;;;-4.93;93.59
65800;BME280;52544;48.116;11.660;2023-02-10T06:46:00;97550.41;;;-4.95;93.07
65800;BME280;52544;48.116;11.660;2023-02-10T06:48:25;97557.28;;;-4.97;93.72
65800;BME280;52544;48.116;11.660;2023-02-10T06:50:51;97564.16;;;-5.01;92.92
65800;BME280;52544;48.116;11.660;2023-02-10T06:53:18;97570.13;;;-5.07;93.51
65800;BME280;52544;48.116;11.660;2023-02-10T06:55:43;97576.16;;;-5.06;94.47
65800;BME280;52544;48.116;11.660;2023-02-10T06:58:09;97577.06;;;-4.98;94.56
65800;BME280;52544;48.116;11.660;2023-02-10T07:00:35;97583.22;;;-4.81;95.69
65800;BME280;52544;48.116;11.660;2023-02-10T07:03:00;97578.13;;;-4.70;95.48
65800;BME280;52544;48.116;11.660;2023-02-10T07:05:26;97576.50;;;-4.54;95.54
65800;BME280;52544;48.116;11.660;2023-02-10T07:07:51;97576.56;;;-4.45;94.95
65800;BME280;52544;48.116;11.660;2023-02-10T07:10:19;97571.47;;;-4.27;94.84
65800;BME280;52544;48.116;11.660;2023-02-10T07:12:44;97576.72;;;-4.05;94.06
65800;BME280;52544;48.116;11.660;2023-02-10T07:15:13;97588.84;;;-3.87;93.38
65800;BME280;52544;48.116;11.660;2023-02-10T07:17:39;97584.56;;;-3.74;92.28
65800;BME280;52544;48.116;11.660;2023-02-10T07:20:05;97586.31;;;-3.61;91.07
65800;BME280;52544;48.116;11.660;2023-02-10T07:22:30;97587.25;;;-3.44;89.91
65800;BME280;52544;48.116;11.660;2023-02-10T07:24:56;97592.41;;;-3.36;89.28
65800;BME280;52544;48.116;11.660;2023-02-10T07:27:22;97590.72;;;-3.17;88.23
65800;BME280;52544;48.116;11.660;2023-02-10T07:29:48;97601.94;;;-3.06;88.10
65800;BME280;52544;48.116;11.660;2023-02-10T07:32:14;97595.91;;;-2.93;85.99
65800;BME280;52544;48.116;11.660;2023-02-10T07:34:40;97589.88;;;-2.89;86.13
65800;BME280;52544;48.116;11.660;2023-02-10T07:37:06;97597.63;;;-2.78;85.92
65800;BME280;52544;48.116;11.660;2023-02-10T07:39:32;97594.13;;;-2.57;84.51
65800;BME280;52544;48.116;11.660;2023-02-10T07:41:57;97588.94;;;-2.45;83.92
65800;BME280;52544;48.116;11.660;2023-02-10T07:44:23;97593.22;;;-2.33;83.30
65800;BME280;52544;48.116;11.660;2023-02-10T07:46:51;97600.09;;;-2.23;82.73
65800;BME280;52544;48.116;11.660;2023-02-10T07:49:17;97599.19;;;-2.13;82.32
65800;BME280;52544;48.116;11.660;2023-02-10T07:51:43;97608.69;;;-2.03;81.11
65800;BME280;52544;48.116;11.660;2023-02-10T07:54:08;97612.06;;;-1.84;79.05
65800;BME280;52544;48.116;11.660;2023-02-10T07:56:34;97609.44;;;-1.78;78.38
65800;BME280;52544;48.116;11.660;2023-02-10T07:59:00;97611.19;;;-1.80;78.50
65800;BME280;52544;48.116;11.660;2023-02-10T08:01:25;97615.47;;;-1.72;78.22
65800;BME280;52544;48.116;11.660;2023-02-10T08:03:51;97615.47;;;-1.72;77.69
65800;BME280;52544;48.116;11.660;2023-02-10T08:06:24;97613.72;;;-1.70;77.75
65800;BME280;52544;48.116;11.660;2023-02-10T08:08:50;97614.59;;;-1.68;77.93
65800;BME280;52544;48.116;11.660;2023-02-10T08:11:17;97620.56;;;-1.54;77.80
65800;BME280;52544;48.116;11.660;2023-02-10T08:13:43;97614.41;;;-1.35;76.74
65800;BME280;52544;48.116;11.660;2023-02-10T08:16:08;97614.28;;;-1.19;76.46
65800;BME280;52544;48.116;11.660;2023-02-10T08:18:37;97620.22;;;-0.99;75.94
65800;BME280;52544;48.116;11.660;2023-02-10T08:21:02;97620.19;;;-0.93;75.14
65800;BME280;52544;48.116;11.660;2023-02-10T08:23:29;97619.16;;;-0.75;74.20
65800;BME280;52544;48.116;11.660;2023-02-10T08:25:54;97614.69;;;-0.61;72.88
65800;BME280;52544;48.116;11.660;2023-02-10T08:28:20;97610.31;;;-0.54;73.44
65800;BME280;52544;48.116;11.660;2023-02-10T08:30:45;97616.22;;;-0.38;71.78
65800;BME280;52544;48.116;11.660;2023-02-10T08:33:11;97607.34;;;-0.19;71.50
65800;BME280;52544;48.116;11.660;2023-02-10T08:35:37;97608.22;;;-0.21;71.77
65800;BME280;52544;48.116;11.660;2023-02-10T08:38:04;97612.28;;;0.06;70.49
65800;BME280;52544;48.116;11.660;2023-02-10T08:40:29;97609.38;;;0.32;69.69
65800;BME280;52544;48.116;11.660;2023-02-10T08:42:55;97605.59;;;0.54;69.08
65800;BME280;52544;48.116;11.660;2023-02-10T08:45:21;97611.41;;;0.71;68.45
65800;BME280;52544;48.116;11.660;2023-02-10T08:47:46;97605.97;;;0.90;67.41
65800;BME280;52544;48.116;11.660;2023-02-10T08:50:12;97607.41;;;1.06;66.00
65800;BME280;52544;48.116;11.660;2023-02-10T08:52:37;97604.53;;;1.24;66.01
65800;BME280;52544;48.116;11.660;2023-02-10T08:55:03;97602.63;;;1.34;65.85
65800;BME280;52544;48.116;11.660;2023-02-10T08:57:29;97606.56;;;1.58;64.17
65800;BME280;52544;48.116;11.660;2023-02-10T08:59:54;97609.91;;;1.65;62.13
65800;BME280;52544;48.116;11.660;2023-02-10T09:02:20;97605.50;;;1.68;62.94
65800;BME280;52544;48.116;11.660;2023-02-10T09:04:45;97604.91;;;2.00;61.64
65800;BME280;52544;48.116;11.660;2023-02-10T09:07:10;97606.31;;;2.18;61.12
65800;BME280;52544;48.116;11.660;2023-02-10T09:09:39;97608.53;;;2.38;59.99
65800;BME280;52544;48.116;11.660;2023-02-10T09:12:05;97614.34;;;2.51;60.28
65800;BME280;52544;48.116;11.660;2023-02-10T09:14:30;97616.97;;;2.51;60.52
65800;BME280;52544;48.116;11.660;2023-02-10T09:16:56;97617.09;;;2.84;59.42
65800;BME280;52544;48.116;11.660;2023-02-10T09:19:21;97615.13;;;2.95;56.68
65800;BME280;52544;48.116;11.660;2023-02-10T09:21:49;97618.03;;;3.20;56.64
65800;BME280;52544;48.116;11.660;2023-02-10T09:24:15;97619.88;;;3.15;56.24
65800;BME280;52544;48.116;11.660;2023-02-10T09:26:41;97611.91;;;3.55;56.53
65800;BME280;52544;48.116;11.660;2023-02-10T09:29:07;97607.75;;;3.81;54.94
65800;BME280;52544;48.116;11.660;2023-02-10T09:31:33;97607.34;;;3.63;54.78
65800;BME280;52544;48.116;11.660;2023-02-10T09:33:59;97604.47;;;3.72;55.78
65800;BME280;52544;48.116;11.660;2023-02-10T09:36:24;97610.22;;;3.87;54.18
65800;BME280;52544;48.116;11.660;2023-02-10T09:38:50;97626.94;;;4.14;55.28
65800;BME280;52544;48.116;11.660;2023-02-10T09:44:21;97625.88;;;4.82;53.11
65800;BME280;52544;48.116;11.660;2023-02-10T09:46:50;97626.59;;;4.87;51.59
65800;BME280;52544;48.116;11.660;2023-02-10T09:52:32;97617.56;;;4.95;51.24
65800;BME280;52544;48.116;11.660;2023-02-10T09:55:03;97619.56;;;4.87;51.78
65800;BME280;52544;48.116;11.660;2023-02-10T09:57:45;97626.25;;;5.25;51.53
65800;BME280;52544;48.116;11.660;2023-02-10T10:00:31;97616.66;;;5.24;51.53
65800;BME280;52544;48.116;11.660;2023-02-10T10:03:00;97619.84;;;5.34;50.76
65800;BME280;52544;48.116;11.660;2023-02-10T10:08:25;97623.50;;;5.57;51.13
65800;BME280;52544;48.116;11.660;2023-02-10T10:10:56;97614.47;;;5.65;50.09
65800;BME280;52544;48.116;11.660;2023-02-10T10:13:27;97608.47;;;5.87;50.48
65800;BME280;52544;48.116;11.660;2023-02-10T10:18:30;97610.41;;;5.55;49.81
65800;BME280;52544;48.116;11.660;2023-02-10T10:21:07;97612.44;;;5.47;50.25
65800;BME280;52544;48.116;11.660;2023-02-10T10:30:06;97597.72;;;6.43;48.74
65800;BME280;52544;48.116;11.660;2023-02-10T10:32:44;97596.56;;;6.73;48.24
65800;BME280;52544;48.116;11.660;2023-02-10T10:35:23;97589.69;;;6.93;47.82
65800;BME280;52544;48.116;11.660;2023-02-10T10:37:50;97577.88;;;7.03;48.26
65800;BME280;52544;48.116;11.660;2023-02-10T10:40:25;97579.16;;;7.37;46.98
65800;BME280;52544;48.116;11.660;2023-02-10T10:42:55;97578.91;;;7.21;47.06
65800;BME280;52544;48.116;11.660;2023-02-10T10:45:36;97580.47;;;7.26;46.42
65800;BME280;52544;48.116;11.660;2023-02-10T10:48:29;97583.50;;;6.94;47.97
65800;BME280;52544;48.116;11.660;2023-02-10T10:50:55;97570.28;;;7.17;47.52
65800;BME280;52544;48.116;11.660;2023-02-10T10:56:06;97568.72;;;7.76;45.39
65800;BME280;52544;48.116;11.660;2023-02-10T10:58:38;97562.13;;;7.66;45.68
65800;BME280;52544;48.116;11.660;2023-02-10T11:01:05;97557.72;;;7.66;45.53
65800;BME280;52544;48.116;11.660;2023-02-10T11:03:31;97548.47;;;7.76;45.23
65800;BME280;52544;48.116;11.660;2023-02-10T11:06:05;97546.66;;;7.79;45.85
65800;BME280;52544;48.116;11.660;2023-02-10T11:08:58;97542.31;;;7.57;45.47
65800;BME280;52544;48.116;11.660;2023-02-10T11:11:41;97533.31;;;7.41;45.49
65800;BME280;52544;48.116;11.660;2023-02-10T11:14:14;97531.09;;;7.72;45.77
65800;BME280;52544;48.116;11.660;2023-02-10T11:16:43;97522.41;;;7.70;45.82
65800;BME280;52544;48.116;11.660;2023-02-10T11:19:27;97520.94;;;7.84;44.62
65800;BME280;52544;48.116;11.660;2023-02-10T11:21:54;97521.78;;;8.05;45.05
65800;BME280;52544;48.116;11.660;2023-02-10T11:24:23;97520.09;;;8.22;44.01
65800;BME280;52544;48.116;11.660;2023-02-10T11:27:13;97514.63;;;8.07;44.78
65800;BME280;52544;48.116;11.660;2023-02-10T11:29:53;97517.69;;;8.37;43.65
65800;BME280;52544;48.116;11.660;2023-02-10T11:32:23;97510.25;;;8.07;44.20
65800;BME280;52544;48.116;11.660;2023-02-10T11:34:51;97515.34;;;7.91;43.93
65800;BME280;52544;48.116;11.660;2023-02-10T11:37:24;97504.84;;;7.90;43.69
65800;BME280;52544;48.116;11.660;2023-02-10T11:39:52;97507.34;;;7.93;44.28
65800;BME280;52544;48.116;11.660;2023-02-10T11:42:20;97502.38;;;7.87;44.46
65800;BME280;52544;48.116;11.660;2023-02-10T11:44:58;97503.09;;;8.09;43.97
65800;BME280;52544;48.116;11.660;2023-02-10T11:47:26;97499.34;;;7.75;44.67
65800;BME280;52544;48.116;11.660;2023-02-10T11:49:52;97494.72;;;7.81;44.71
65800;BME280;52544;48.116;11.660;2023-02-10T11:52:19;97493.53;;;8.07;42.92
65800;BME280;52544;48.116;11.660;2023-02-10T11:54:46;97494.72;;;7.81;43.06
65800;BME280;52544;48.116;11.660;2023-02-10T11:57:26;97498.03;;;7.65;44.37
65800;BME280;52544;48.116;11.660;2023-02-10T12:03:21;97495.13;;;7.51;43.87
65800;BME280;52544;48.116;11.660;2023-02-10T12:11:11;97478.19;;;7.16;44.36
65800;BME280;52544;48.116;11.660;2023-02-10T12:14:06;97480.63;;;7.20;45.91
65800;BME280;52544;48.116;11.660;2023-02-10T12:16:48;97481.69;;;7.37;45.63
65800;BME280;52544;48.116;11.660;2023-02-10T12:19:39;97482.53;;;7.37;44.48
65800;BME280;52544;48.116;11.660;2023-02-10T12:22:16;97484.09;;;7.21;45.10
65800;BME280;52544;48.116;11.660;2023-02-10T12:25:19;97480.19;;;7.09;45.72
65800;BME280;52544;48.116;11.660;2023-02-10T12:28:01;97476.00;;;7.05;45.34
65800;BME280;52544;48.116;11.660;2023-02-10T12:33:19;97468.66;;;7.54;44.34
65800;BME280;52544;48.116;11.660;2023-02-10T12:41:56;97463.28;;;7.56;44.33
65800;BME280;52544;48.116;11.660;2023-02-10T12:52:42;97450.84;;;7.59;44.28
65800;BME280;52544;48.116;11.660;2023-02-10T12:55:19;97455.34;;;7.96;43.78
65800;BME280;52544;48.116;11.660;2023-02-10T12:57:58;97459.94;;;8.12;41.95
65800;BME280;52544;48.116;11.660;2023-02-10T13:03:38;97461.88;;;7.88;41.02
65800;BME280;52544;48.116;11.660;2023-02-10T13:06:41;97453.22;;;8.23;38.26
65800;BME280;52544;48.116;11.660;2023-02-10T13:09:26;97444.63;;;8.39;38.28
65800;BME280;52544;48.116;11.660;2023-02-10T13:12:22;97443.19;;;8.50;38.40
65800;BME280;52544;48.116;11.660;2023-02-10T13:14:52;97439.53;;;8.53;39.55
65800;BME280;52544;48.116;11.660;2023-02-10T13:17:20;97429.84;;;8.54;39.91
65800;BME280;52544;48.116;11.660;2023-02-10T13:19:59;97424.41;;;8.57;39.28
65800;BME280;52544;48.116;11.660;2023-02-10T13:30:16;97429.81;;;8.72;39.88
65800;BME280;52544;48.116;11.660;2023-02-10T13:33:04;97434.47;;;8.48;40.59
65800;BME280;52544;48.116;11.660;2023-02-10T13:35:35;97433.97;;;8.40;41.31
65800;BME280;52544;48.116;11.660;2023-02-10T13:38:06;97428.56;;;8.24;41.71
65800;BME280;52544;48.116;11.660;2023-02-10T13:40:45;97432.84;;;8.46;40.47
65800;BME280;52544;48.116;11.660;2023-02-10T13:43:31;97437.28;;;8.45;39.31
65800;BME280;52544;48.116;11.660;2023-02-10T13:45:59;97440.19;;;8.39;39.48
65800;BME280;52544;48.116;11.660;2023-02-10T13:48:29;97441.53;;;8.10;39.35
65800;BME280;52544;48.116;11.660;2023-02-10T13:51:00;97437.03;;;8.12;41.28
65800;BME280;52544;48.116;11.660;2023-02-10T14:01:36;97423.06;;;8.10;42.29
65800;BME280;52544;48.116;11.660;2023-02-10T14:04:04;97429.41;;;8.06;41.75
65800;BME280;52544;48.116;11.660;2023-02-10T14:06:38;97418.59;;;8.12;42.09
65800;BME280;52544;48.116;11.660;2023-02-10T14:12:04;97416.53;;;8.74;40.59
65800;BME280;52544;48.116;11.660;2023-02-10T14:14:36;97417.25;;;8.95;40.33
65800;BME280;52544;48.116;11.660;2023-02-10T14:17:06;97419.44;;;9.21;39.66
65800;BME280;52544;48.116;11.660;2023-02-10T14:21:59;97427.69;;;9.33;38.53
65800;BME280;52544;48.116;11.660;2023-02-10T14:24:28;97419.88;;;9.47;39.24
65800;BME280;52544;48.116;11.660;2023-02-10T14:27:00;97428.91;;;9.25;39.25
65800;BME280;52544;48.116;11.660;2023-02-10T14:29:28;97428.44;;;9.00;39.29
65800;BME280;52544;48.116;11.660;2023-02-10T14:32:00;97427.22;;;9.24;40.14